»·PEaware :: JBU7855 KGEG-KBOI

JBU7855 :: KGEG-KBOI

FLIGHT INFORMATION

Flight Status: Arrived
Operator:
JetBlue Airways
More flights by this operator :: More flights under this callsign
Pilot: James N. (18449)
Aircraft: EMBRAER EMB-170/175
(E170)
More flights by this aircraft type
Origin: KGEG Spokane Intl
United States
Destination: KBOI Boise Air Terminal/Gowen
United States
More flights between these airports :: More routes between these airports
Route: +GEG SUMOQ BEWTE3
File this flight plan on PilotEdge
Remarks: PBN / B2B3B4B5C1D1S2 DOF / 180918 REG / N218NN EET / KZLC0025 OPR / JBU PER / C RMK / TCAS SIMBRIEF
Altitude:
(Current/Filed)
33,000ft
Speed:
(Current/Filed)
428kts
Departed: 17-Sep-18 08:30 PM
Arrived: 17-Sep-18 09:16 PM
Distance/Time
Traveled:
249nm/0:46
Distance/Time
To Go:
Arrived

Flight Plot

Page will automatically refresh every two minutes.

Flight plan parsing failed; only flown route is shown


Map Options




Map Legend


Flown Route
Filed Route
Departure Airport
Arrival Airport
Navaid (VOR, NDB)
Fix

Horizontal Profiles

Position Reports

Time Latitude Longitude Heading Altitude Ground
Speed
17-Sep-18 20:03 47.624226 -117.536559 81 2365ft 0kts
17-Sep-18 20:04 47.624226 -117.536559 81 2365ft 0kts
17-Sep-18 20:05 47.624226 -117.536559 81 2365ft 0kts
17-Sep-18 20:06 47.624226 -117.536559 81 2365ft 0kts
17-Sep-18 20:07 47.624226 -117.536559 81 2365ft 0kts
17-Sep-18 20:08 47.624226 -117.536559 81 2365ft 0kts
17-Sep-18 20:09 47.624226 -117.536559 81 2365ft 0kts
17-Sep-18 20:10 47.624226 -117.536559 81 2365ft 0kts
17-Sep-18 20:11 47.624226 -117.536559 81 2365ft 0kts
17-Sep-18 20:12 47.624226 -117.536559 81 2365ft 0kts
17-Sep-18 20:13 47.624226 -117.536559 81 2365ft 0kts
17-Sep-18 20:14 47.624226 -117.536559 81 2365ft 0kts
17-Sep-18 20:15 47.624226 -117.536559 81 2365ft 0kts
17-Sep-18 20:16 47.624226 -117.536559 81 2365ft 0kts
17-Sep-18 20:17 47.624226 -117.536559 81 2365ft 0kts
17-Sep-18 20:18 47.624226 -117.536559 81 2365ft 0kts
17-Sep-18 20:19 47.624226 -117.536559 81 2365ft 0kts
17-Sep-18 20:20 47.624226 -117.536559 81 2365ft 0kts
17-Sep-18 20:21 47.624205 -117.536787 81 2365ft 2kts
17-Sep-18 20:22 47.624127 -117.537632 96 2365ft 1kts
17-Sep-18 20:23 47.623682 -117.537096 133 2365ft 3kts
17-Sep-18 20:24 47.623623 -117.537005 132 2365ft 0kts
17-Sep-18 20:25 47.623623 -117.537004 132 2365ft 0kts
17-Sep-18 20:26 47.623623 -117.537004 132 2365ft 0kts
17-Sep-18 20:27 47.623350 -117.536570 132 2365ft 5kts
17-Sep-18 20:28 47.623701 -117.533694 44 2365ft 12kts
17-Sep-18 20:29 47.625868 -117.530334 44 2365ft 9kts
17-Sep-18 20:30 47.627786 -117.527464 46 2365ft 11kts
17-Sep-18 20:31 47.627118 -117.524618 185 2365ft 11kts
17-Sep-18 20:32 47.606658 -117.554907 225 3086ft 170kts
17-Sep-18 20:33 47.575456 -117.601796 226 4455ft 169kts
17-Sep-18 20:34 47.535492 -117.663719 227 6830ft 228kts
17-Sep-18 20:35 47.470199 -117.669099 151 9280ft 289kts
17-Sep-18 20:36 47.400639 -117.607767 153 12048ft 296kts
17-Sep-18 20:37 47.319365 -117.557602 162 14021ft 336kts
17-Sep-18 20:38 47.228300 -117.514392 166 17381ft 344kts
17-Sep-18 20:39 47.133569 -117.478461 170 20157ft 357kts
17-Sep-18 20:40 47.036502 -117.444413 171 22470ft 372kts
17-Sep-18 20:41 46.936946 -117.412960 173 24675ft 377kts
17-Sep-18 20:42 46.834337 -117.379942 169 26315ft 394kts
17-Sep-18 20:43 46.729813 -117.336359 169 28142ft 398kts
17-Sep-18 20:44 46.624744 -117.293214 170 29685ft 400kts
17-Sep-18 20:45 46.514677 -117.250886 171 30487ft 419kts
17-Sep-18 20:46 46.403652 -117.210758 172 32014ft 414kts
17-Sep-18 20:47 46.293131 -117.169643 171 33039ft 407kts
17-Sep-18 20:48 46.183190 -117.128197 171 33061ft 411kts
17-Sep-18 20:49 46.072911 -117.086707 171 33060ft 412kts
17-Sep-18 20:50 45.962672 -117.045420 171 33060ft 412kts
17-Sep-18 20:51 45.853128 -117.004610 171 33065ft 413kts
17-Sep-18 20:52 45.749573 -116.965927 172 33040ft 359kts
17-Sep-18 20:53 45.658732 -116.932223 173 33072ft 333kts
17-Sep-18 20:54 45.560566 -116.897279 172 33095ft 400kts
17-Sep-18 20:55 45.450525 -116.856673 171 33104ft 413kts
17-Sep-18 20:56 45.339525 -116.815573 171 33085ft 414kts
17-Sep-18 20:57 45.228499 -116.775087 171 33064ft 414kts
17-Sep-18 20:58 45.117666 -116.734907 171 33065ft 414kts
17-Sep-18 20:59 45.006587 -116.694689 171 31369ft 423kts
17-Sep-18 21:00 44.889351 -116.654645 173 28769ft 442kts
17-Sep-18 21:01 44.770762 -116.625350 175 26160ft 429kts
17-Sep-18 21:02 44.655308 -116.596576 174 23798ft 414kts
17-Sep-18 21:03 44.544584 -116.567851 173 21367ft 403kts
17-Sep-18 21:04 44.435809 -116.540033 173 19013ft 391kts
17-Sep-18 21:05 44.330585 -116.513424 173 16772ft 379kts
17-Sep-18 21:06 44.229229 -116.487543 172 14653ft 366kts
17-Sep-18 21:07 44.131063 -116.462759 172 12651ft 356kts
17-Sep-18 21:08 44.035677 -116.438730 171 10902ft 339kts
17-Sep-18 21:09 43.950296 -116.416392 171 10357ft 294kts
17-Sep-18 21:10 43.873270 -116.396099 171 8756ft 273kts
17-Sep-18 21:11 43.803032 -116.377859 175 7013ft 236kts
17-Sep-18 21:12 43.739808 -116.392393 203 6413ft 235kts
17-Sep-18 21:13 43.679596 -116.425522 203 5812ft 233kts
17-Sep-18 21:14 43.618482 -116.416264 124 5202ft 228kts
17-Sep-18 21:15 43.609834 -116.349134 110 4900ft 154kts
17-Sep-18 21:16 43.589344 -116.298265 118 3733ft 148kts
17-Sep-18 21:17 43.572126 -116.248519 115 2978ft 140kts
17-Sep-18 21:18 43.566755 -116.229991 24 2844ft 0kts
17-Sep-18 21:19 43.568404 -116.228455 92 2844ft 10kts
17-Sep-18 21:20 43.567585 -116.225650 115 2844ft 9kts
17-Sep-18 21:21 43.566465 -116.221763 32 2844ft 6kts
17-Sep-18 21:22 43.567336 -116.221254 28 2844ft 0kts
17-Sep-18 21:23 43.567387 -116.221217 27 2844ft 0kts
17-Sep-18 21:24 43.567387 -116.221217 27 2844ft 0kts

Navigation Log

Ident Type
Flight plan parsing failed, navigation log unavailable